createdAt,value
2018-08-23T00:01:29.752Z,50.18
2018-08-23T00:04:03.066Z,50.25
2018-08-23T00:06:31.767Z,51.21
2018-08-23T00:09:00.333Z,51.40
2018-08-23T00:11:34.724Z,51.74
2018-08-23T00:14:03.298Z,51.52
2018-08-23T00:16:37.168Z,51.98
2018-08-23T00:19:05.845Z,52.16
2018-08-23T00:21:40.463Z,52.01
2018-08-23T00:24:17.709Z,52.37
2018-08-23T00:26:51.992Z,53.05
2018-08-23T00:29:25.684Z,52.96
2018-08-23T00:32:10.404Z,53.29
2018-08-23T00:34:39.982Z,53.94
2018-08-23T00:37:09.099Z,54.59
2018-08-23T00:39:37.688Z,55.40
2018-08-23T00:42:10.260Z,55.13
2018-08-23T00:44:59.125Z,55.95
2018-08-23T00:47:32.378Z,56.48
2018-08-23T00:50:01.476Z,56.65
2018-08-23T00:52:50.138Z,57.95
2018-08-23T00:55:25.275Z,57.58
2018-08-23T00:57:53.828Z,57.70
2018-08-23T01:00:23.675Z,58.19
2018-08-23T01:02:54.159Z,57.80
2018-08-23T01:05:28.242Z,57.92
2018-08-23T01:07:57.177Z,57.65
2018-08-23T01:10:26.435Z,58.37
2018-08-23T01:12:58.150Z,57.91
2018-08-23T01:15:26.915Z,58.71
2018-08-23T01:18:10.234Z,58.31
2018-08-23T01:20:39.604Z,58.12
2018-08-23T01:23:08.626Z,57.44
2018-08-23T01:25:44.592Z,57.51
2018-08-23T01:28:13.492Z,58.07
2018-08-23T01:30:42.806Z,58.31
2018-08-23T01:33:13.104Z,57.93
2018-08-23T01:35:42.953Z,58.14
2018-08-23T01:38:12.413Z,57.74
2018-08-23T01:40:41.898Z,58.00
2018-08-23T01:43:10.456Z,57.97
2018-08-23T01:45:39.234Z,58.83
2018-08-23T01:48:08.923Z,59.45
2018-08-23T01:50:37.508Z,59.54
2018-08-23T01:53:06.655Z,59.59
2018-08-23T01:55:35.299Z,58.92
2018-08-23T01:58:04.351Z,59.57
2018-08-23T02:00:34.218Z,59.54
2018-08-23T02:03:03.394Z,59.16
2018-08-23T02:06:56.538Z,59.69
2018-08-23T02:09:25.392Z,60.18
2018-08-23T02:11:54.487Z,60.06
2018-08-23T02:14:23.170Z,60.15
2018-08-23T02:16:52.820Z,60.12
2018-08-23T02:19:24.255Z,59.82
2018-08-23T02:21:53.339Z,60.57
2018-08-23T02:24:29.910Z,60.52
2018-08-23T02:26:59.340Z,60.82
2018-08-23T02:29:37.502Z,60.46
2018-08-23T02:32:06.695Z,60.66
2018-08-23T02:34:41.294Z,60.48
2018-08-23T02:37:13.031Z,60.63
2018-08-23T02:39:44.184Z,60.30
2018-08-23T02:42:14.199Z,60.42
2018-08-23T02:44:44.227Z,61.21
2018-08-23T02:47:13.249Z,61.50
2018-08-23T02:49:43.056Z,61.92
2018-08-23T02:52:11.840Z,62.50
2018-08-23T02:54:40.389Z,62.13
2018-08-23T02:57:11.022Z,62.35
2018-08-23T02:59:39.891Z,62.53
2018-08-23T03:02:14.071Z,61.87
2018-08-23T03:04:42.784Z,62.01
2018-08-23T03:07:12.008Z,61.97
2018-08-23T03:09:42.352Z,61.87
2018-08-23T03:12:18.573Z,61.92
2018-08-23T03:14:47.808Z,62.02
2018-08-23T03:17:26.409Z,62.13
2018-08-23T03:20:03.917Z,62.52
2018-08-23T03:22:33.676Z,63.19
2018-08-23T03:25:04.828Z,62.88
2018-08-23T03:27:33.481Z,62.84
2018-08-23T03:30:03.281Z,63.96
2018-08-23T03:32:31.945Z,63.23
2018-08-23T03:35:01.068Z,62.52
2018-08-23T03:37:29.616Z,62.82
2018-08-23T03:39:58.343Z,62.76
2018-08-23T03:42:27.213Z,62.18
2018-08-23T03:44:56.950Z,62.06
2018-08-23T03:47:27.198Z,62.22
2018-08-23T03:49:55.791Z,62.81
2018-08-23T03:52:40.751Z,63.21
2018-08-23T03:55:10.705Z,62.99
2018-08-23T03:57:45.029Z,63.54
2018-08-23T04:00:13.631Z,63.86
2018-08-23T04:02:42.417Z,63.99
2018-08-23T04:05:16.244Z,64.42
2018-08-23T04:07:45.030Z,65.59
2018-08-23T04:10:13.601Z,65.50
2018-08-23T04:12:43.625Z,65.10
2018-08-23T04:15:27.344Z,64.95
2018-08-23T04:17:56.215Z,65.12
2018-08-23T04:20:25.072Z,64.91
2018-08-23T04:22:54.347Z,65.05
2018-08-23T04:25:22.771Z,64.74
2018-08-23T04:27:51.298Z,65.20
2018-08-23T04:30:19.915Z,65.74
2018-08-23T04:32:49.556Z,65.52
2018-08-23T04:35:33.433Z,65.50
2018-08-23T04:38:02.471Z,65.12
2018-08-23T04:40:32.266Z,65.04
2018-08-23T04:43:01.160Z,64.39
2018-08-23T04:45:31.777Z,64.65
2018-08-23T04:48:08.138Z,64.16
2018-08-23T04:50:37.532Z,65.43
2018-08-23T04:53:06.117Z,65.41
2018-08-23T04:55:35.389Z,65.81
2018-08-23T04:58:05.690Z,65.88
2018-08-23T05:00:34.339Z,65.50
2018-08-23T05:03:02.880Z,65.94
2018-08-23T05:05:32.053Z,65.51
2018-08-23T05:08:02.028Z,65.52
2018-08-23T05:10:30.969Z,66.31
2018-08-23T05:12:59.505Z,65.30
2018-08-23T05:15:28.334Z,66.03
2018-08-23T05:17:57.203Z,67.02
2018-08-23T05:20:25.780Z,66.92
2018-08-23T05:23:00.679Z,66.61
2018-08-23T05:25:29.264Z,66.78
2018-08-23T05:28:14.620Z,66.50
2018-08-23T05:30:43.878Z,66.66
2018-08-23T05:33:18.716Z,66.62
2018-08-23T05:35:47.375Z,67.01
2018-08-23T05:38:16.569Z,66.99
2018-08-23T05:40:48.115Z,66.29
2018-08-23T05:43:16.971Z,66.48
2018-08-23T05:45:55.982Z,65.86
2018-08-23T05:48:31.695Z,66.23
2018-08-23T05:51:04.559Z,65.28
2018-08-23T05:53:33.423Z,64.68
2018-08-23T05:56:02.692Z,65.21
2018-08-23T05:58:33.041Z,65.66
2018-08-23T06:01:02.087Z,66.21
2018-08-23T06:03:32.059Z,65.36
2018-08-23T06:06:00.636Z,65.40
2018-08-23T06:08:29.206Z,65.32
2018-08-23T06:11:07.657Z,65.40
2018-08-23T06:13:36.220Z,65.59
2018-08-23T06:16:04.848Z,64.76
2018-08-23T06:18:33.831Z,64.73
2018-08-23T06:21:02.440Z,64.12
2018-08-23T06:23:41.383Z,64.42
2018-08-23T06:26:09.950Z,64.44
2018-08-23T06:28:39.004Z,63.42
2018-08-23T06:31:07.875Z,63.14
2018-08-23T06:33:41.589Z,63.10
2018-08-23T06:36:10.774Z,63.07
2018-08-23T06:38:41.124Z,62.97
2018-08-23T06:41:09.722Z,62.78
2018-08-23T06:43:38.617Z,63.84
2018-08-23T06:46:07.481Z,62.77
2018-08-23T06:48:36.032Z,63.28
2018-08-23T06:51:06.579Z,62.13
2018-08-23T06:53:44.705Z,62.43
2018-08-23T06:56:14.194Z,62.50
2018-08-23T06:58:42.781Z,64.33
2018-08-23T07:01:39.081Z,63.79
2018-08-23T07:04:14.293Z,63.83
2018-08-23T07:06:43.108Z,63.07
2018-08-23T07:09:17.305Z,64.18
2018-08-23T07:11:47.196Z,63.90
2018-08-23T07:14:17.701Z,64.25
2018-08-23T07:16:47.947Z,62.08
2018-08-23T07:19:26.736Z,61.58
2018-08-23T07:21:55.989Z,62.68
2018-08-23T07:24:42.377Z,60.93
2018-08-23T07:27:11.980Z,61.35
2018-08-23T07:29:40.610Z,60.43
2018-08-23T07:32:13.343Z,59.27
2018-08-23T07:34:49.079Z,59.82
2018-08-23T07:37:19.806Z,58.09
2018-08-23T07:39:56.903Z,57.23
2018-08-23T07:42:28.385Z,57.79
2018-08-23T07:44:57.813Z,57.51
2018-08-23T07:47:27.365Z,57.41
2018-08-23T07:49:57.481Z,57.15
2018-08-23T07:52:28.211Z,57.01
2018-08-23T07:54:57.075Z,57.08
2018-08-23T07:57:25.725Z,57.03
2018-08-23T07:59:57.387Z,57.72
2018-08-23T08:02:27.808Z,57.69
2018-08-23T08:04:56.654Z,56.29
2018-08-23T08:07:26.920Z,56.17
2018-08-23T08:09:55.915Z,56.33
2018-08-23T08:12:36.627Z,55.60
2018-08-23T08:15:06.508Z,55.08
2018-08-23T08:17:35.282Z,56.47
2018-08-23T08:20:05.749Z,56.08
2018-08-23T08:22:34.747Z,55.05
2018-08-23T08:25:06.005Z,54.41
2018-08-23T08:27:34.592Z,53.32
2018-08-23T08:30:03.429Z,52.00
2018-08-23T08:32:32.010Z,51.26
2018-08-23T08:35:00.556Z,50.68
2018-08-23T08:37:29.548Z,50.91
2018-08-23T08:39:58.096Z,53.15
2018-08-23T08:42:29.289Z,52.40
2018-08-23T08:45:03.449Z,51.34
2018-08-23T08:47:32.180Z,51.59
2018-08-23T08:50:00.698Z,52.43
2018-08-23T08:52:29.652Z,51.19
2018-08-23T08:54:58.526Z,51.65
2018-08-23T08:57:30.877Z,50.27
2018-08-23T08:59:59.656Z,49.11
2018-08-23T09:02:32.216Z,47.57
2018-08-23T09:05:00.772Z,48.27
2018-08-23T09:07:30.825Z,48.04
2018-08-23T09:09:59.379Z,48.28
2018-08-23T09:12:30.116Z,47.51
2018-08-23T09:14:58.817Z,48.09
2018-08-23T09:17:40.672Z,50.26
2018-08-23T09:20:11.891Z,50.32
2018-08-23T09:22:41.853Z,49.33
2018-08-23T09:25:15.993Z,47.71
2018-08-23T09:27:45.048Z,47.44
2018-08-23T09:30:19.029Z,48.97
2018-08-23T09:32:47.908Z,49.16
2018-08-23T09:35:16.549Z,47.39
2018-08-23T09:37:45.576Z,47.60
2018-08-23T09:40:14.124Z,47.56
2018-08-23T09:42:43.641Z,46.16
2018-08-23T09:45:17.274Z,47.01
2018-08-23T09:47:45.849Z,47.03
2018-08-23T09:50:14.511Z,47.12
2018-08-23T09:52:48.449Z,46.51
2018-08-23T09:55:20.586Z,47.20
2018-08-23T09:57:49.741Z,46.90
2018-08-23T10:00:23.525Z,46.28
2018-08-23T10:02:57.389Z,46.49
2018-08-23T10:05:31.452Z,46.61
2018-08-23T10:08:05.121Z,45.02
2018-08-23T10:10:38.912Z,44.27
2018-08-23T10:13:13.133Z,42.94
2018-08-23T10:15:48.675Z,43.37
2018-08-23T10:18:25.904Z,45.42
2018-08-23T10:20:58.274Z,45.55
2018-08-23T10:23:26.828Z,44.53
2018-08-23T10:25:56.784Z,43.19
2018-08-23T10:28:26.525Z,41.54
2018-08-23T10:30:55.884Z,41.33
2018-08-23T10:33:24.789Z,42.92
2018-08-23T10:35:54.986Z,42.43
2018-08-23T10:38:24.880Z,43.54
2018-08-23T10:40:54.835Z,42.23
2018-08-23T10:43:29.167Z,42.20
2018-08-23T10:46:01.859Z,41.64
2018-08-23T10:48:30.412Z,42.25
2018-08-23T10:50:59.389Z,40.49
2018-08-23T10:53:27.901Z,39.60
2018-08-23T10:55:56.606Z,39.45
2018-08-23T10:58:25.184Z,39.34
2018-08-23T11:00:53.740Z,41.83
2018-08-23T11:03:22.324Z,39.55
2018-08-23T11:05:51.321Z,40.08
2018-08-23T11:08:28.377Z,41.69
2018-08-23T11:11:02.045Z,39.86
2018-08-23T11:13:35.824Z,39.79
2018-08-23T11:16:09.706Z,39.58
2018-08-23T11:18:44.696Z,37.76
2018-08-23T11:21:14.265Z,38.77
2018-08-23T11:23:43.530Z,40.59
2018-08-23T11:26:16.275Z,39.19
2018-08-23T11:28:45.789Z,37.02
2018-08-23T11:31:44.780Z,36.16
2018-08-23T11:34:13.681Z,35.86
2018-08-23T11:36:42.231Z,34.77
2018-08-23T11:39:11.365Z,33.70
2018-08-23T11:41:39.930Z,35.13
2018-08-23T11:44:08.467Z,36.08
2018-08-23T11:46:37.017Z,34.36
2018-08-23T11:49:05.640Z,33.65
2018-08-23T11:51:35.094Z,31.59
2018-08-23T11:54:03.625Z,31.42
2018-08-23T11:56:32.178Z,32.97
2018-08-23T11:59:00.800Z,32.08
2018-08-23T12:01:29.340Z,31.67
2018-08-23T12:03:58.088Z,31.80
2018-08-23T12:06:26.663Z,30.75
2018-08-23T12:08:55.187Z,29.02
2018-08-23T12:11:24.005Z,28.02
2018-08-23T12:13:52.857Z,28.17
2018-08-23T12:16:21.726Z,29.67
2018-08-23T12:18:50.268Z,30.03
2018-08-23T12:21:19.185Z,28.05
2018-08-23T12:23:47.732Z,29.66
2018-08-23T12:26:17.372Z,29.75
2018-08-23T12:28:51.013Z,31.41
2018-08-23T12:31:19.564Z,28.84
2018-08-23T12:33:48.159Z,28.87
2018-08-23T12:36:20.846Z,28.32
2018-08-23T12:38:54.494Z,30.00
2018-08-23T12:41:28.249Z,30.29
2018-08-23T12:43:56.793Z,31.18
2018-08-23T12:46:25.783Z,29.77
2018-08-23T12:48:57.117Z,30.45
2018-08-23T12:51:25.732Z,30.83
2018-08-23T12:53:54.250Z,29.82
2018-08-23T12:56:23.181Z,30.14
2018-08-23T12:58:51.885Z,29.16
2018-08-23T13:01:20.758Z,29.84
2018-08-23T13:03:49.324Z,29.20
2018-08-23T13:06:18.146Z,28.47
2018-08-23T13:08:47.651Z,27.36
2018-08-23T13:11:16.246Z,27.96
2018-08-23T13:13:45.355Z,27.24
2018-08-23T13:16:13.900Z,27.87
2018-08-23T13:18:42.442Z,29.66
2018-08-23T13:21:11.025Z,28.60
2018-08-23T13:23:50.310Z,29.27
2018-08-23T13:26:18.904Z,26.15
2018-08-23T13:28:48.374Z,27.44
2018-08-23T13:31:16.948Z,28.05
2018-08-23T13:33:45.474Z,28.63
2018-08-23T13:36:14.380Z,27.36
2018-08-23T13:38:42.837Z,27.29
2018-08-23T13:41:11.373Z,29.20
2018-08-23T13:43:39.970Z,29.46
2018-08-23T13:46:08.518Z,29.71
2018-08-23T13:48:37.066Z,29.24
2018-08-23T13:51:06.731Z,27.71
2018-08-23T13:53:35.235Z,27.22
2018-08-23T13:56:04.092Z,27.47
2018-08-23T13:58:32.596Z,27.57
2018-08-23T14:01:01.171Z,26.48
2018-08-23T14:03:29.693Z,26.66
2018-08-23T14:05:58.609Z,26.00
2018-08-23T14:08:27.956Z,26.15
2018-08-23T14:10:56.505Z,24.57
2018-08-23T14:13:25.057Z,24.31
2018-08-23T14:15:58.717Z,23.51
2018-08-23T14:18:27.259Z,23.44
2018-08-23T14:20:56.014Z,24.09
2018-08-23T14:23:24.683Z,23.85
2018-08-23T14:25:53.514Z,24.14
2018-08-23T14:28:22.079Z,24.98
2018-08-23T14:30:51.020Z,22.97
2018-08-23T14:33:19.573Z,22.32
2018-08-23T14:35:48.676Z,23.03
2018-08-23T14:38:17.217Z,23.99
2018-08-23T14:40:46.120Z,22.66
2018-08-23T14:43:14.701Z,22.58
2018-08-23T14:45:43.210Z,23.29
2018-08-23T14:48:12.849Z,22.68
2018-08-23T14:50:41.676Z,23.66
2018-08-23T14:53:10.264Z,23.41
2018-08-23T14:55:44.219Z,22.99
2018-08-23T14:58:14.321Z,23.92
2018-08-23T15:00:42.914Z,22.82
2018-08-23T15:03:12.188Z,22.60
2018-08-23T15:05:40.771Z,23.22
2018-08-23T15:08:09.371Z,22.32
2018-08-23T15:10:38.354Z,22.57
2018-08-23T15:13:07.369Z,22.29
2018-08-23T15:15:41.092Z,23.23
2018-08-23T15:18:10.111Z,23.41
2018-08-23T15:20:39.010Z,23.94
2018-08-23T15:23:08.405Z,23.94
2018-08-23T15:25:37.243Z,23.91
2018-08-23T15:28:05.933Z,24.33
2018-08-23T15:30:34.762Z,24.58
2018-08-23T15:33:03.398Z,24.48
2018-08-23T15:35:32.270Z,24.87
2018-08-23T15:38:01.426Z,25.27
2018-08-23T15:40:30.123Z,25.38
2018-08-23T15:42:58.711Z,25.73
2018-08-23T15:45:27.658Z,25.90
2018-08-23T15:51:27.194Z,26.87
2018-08-23T15:53:56.691Z,26.03
2018-08-23T15:56:25.222Z,26.97
2018-08-23T15:58:53.884Z,27.18
2018-08-23T16:01:22.421Z,27.25
2018-08-23T16:03:50.986Z,25.57
2018-08-23T16:06:19.511Z,26.38
2018-08-23T16:08:50.932Z,25.68
2018-08-23T16:11:21.496Z,26.08
2018-08-23T16:13:51.054Z,25.73
2018-08-23T16:16:24.777Z,26.91
2018-08-23T16:18:58.563Z,26.21
2018-08-23T16:21:32.254Z,26.51
2018-08-23T16:24:00.803Z,25.32
2018-08-23T16:26:34.665Z,24.83
2018-08-23T16:29:03.245Z,24.66
2018-08-23T16:31:31.822Z,24.15
2018-08-23T16:34:01.061Z,24.47
2018-08-23T16:36:29.582Z,23.50
2018-08-23T16:38:58.143Z,23.48
2018-08-23T16:41:27.077Z,25.09
2018-08-23T16:43:55.658Z,24.68
2018-08-23T16:46:25.201Z,24.77
2018-08-23T16:48:53.965Z,24.91
2018-08-23T16:51:22.503Z,24.78
2018-08-23T16:53:51.039Z,25.53
2018-08-23T16:56:19.995Z,24.88
2018-08-23T16:58:49.382Z,24.29
2018-08-23T17:01:17.928Z,24.09
2018-08-23T17:03:51.335Z,24.92
2018-08-23T17:06:19.867Z,25.99
2018-08-23T17:08:48.759Z,26.69
2018-08-23T17:11:17.244Z,26.96
2018-08-23T17:13:45.839Z,26.61
2018-08-23T17:16:19.480Z,26.69
2018-08-23T17:18:48.068Z,26.00
2018-08-23T17:21:16.618Z,26.14
2018-08-23T17:23:45.169Z,26.87
2018-08-23T17:26:13.718Z,27.20
2018-08-23T17:28:42.266Z,27.14
2018-08-23T17:31:11.528Z,27.41
2018-08-23T17:33:40.097Z,27.26
2018-08-23T17:36:08.673Z,27.53
2018-08-23T17:38:37.252Z,27.58
2018-08-23T17:41:05.801Z,27.99
2018-08-23T17:43:34.695Z,28.28
2018-08-23T17:46:03.558Z,28.68
2018-08-23T17:48:33.011Z,29.31
2018-08-23T17:51:01.439Z,29.33
2018-08-23T17:53:30.003Z,29.43
2018-08-23T17:55:58.776Z,29.70
2018-08-23T17:58:27.343Z,30.32
2018-08-23T18:00:56.492Z,30.68
2018-08-23T18:03:25.096Z,29.99
2018-08-23T18:05:54.746Z,30.62
2018-08-23T18:08:24.037Z,30.39
2018-08-23T18:10:52.609Z,30.34
2018-08-23T18:13:21.178Z,31.02
2018-08-23T18:15:54.995Z,31.41
2018-08-23T18:18:23.554Z,31.12
2018-08-23T18:20:52.149Z,31.84
2018-08-23T18:23:20.676Z,31.42
2018-08-23T18:25:49.243Z,32.17
2018-08-23T18:28:18.548Z,32.42
2018-08-23T18:30:47.160Z,32.60
2018-08-23T18:33:16.182Z,32.36
2018-08-23T18:35:44.790Z,33.28
2018-08-23T18:38:13.598Z,32.76
2018-08-23T18:40:43.210Z,33.18
2018-08-23T18:43:12.132Z,33.68
2018-08-23T18:45:41.695Z,34.09
2018-08-23T18:48:10.215Z,34.62
2018-08-23T18:50:38.781Z,34.05
2018-08-23T18:53:07.337Z,34.82
2018-08-23T18:55:36.479Z,36.33
2018-08-23T18:58:05.070Z,35.43
2018-08-23T19:00:34.010Z,36.68
2018-08-23T19:03:02.904Z,36.14
2018-08-23T19:05:32.118Z,36.24
2018-08-23T19:08:00.671Z,36.20
2018-08-23T19:10:29.645Z,35.66
2018-08-23T19:12:58.870Z,36.33
2018-08-23T19:15:32.723Z,36.87
2018-08-23T19:18:02.281Z,37.10
2018-08-23T19:20:30.859Z,37.43
2018-08-23T19:22:59.823Z,37.72
2018-08-23T19:25:28.415Z,37.80
2018-08-23T19:27:57.813Z,37.70
2018-08-23T19:30:27.358Z,38.61
2018-08-23T19:32:55.886Z,38.58
2018-08-23T19:35:24.701Z,38.77
2018-08-23T19:37:53.597Z,38.91
2018-08-23T19:40:22.576Z,38.42
2018-08-23T19:42:51.388Z,38.16
2018-08-23T19:45:20.177Z,38.54
2018-08-23T19:47:55.207Z,38.62
2018-08-23T19:50:24.678Z,38.97
2018-08-23T19:52:53.235Z,40.22
2018-08-23T19:55:22.131Z,40.05
2018-08-23T19:57:50.676Z,40.60
2018-08-23T20:00:19.300Z,40.92
2018-08-23T20:02:48.464Z,40.70
2018-08-23T20:05:17.271Z,40.42
2018-08-23T20:07:45.836Z,40.86
2018-08-23T20:10:14.400Z,43.75
2018-08-23T20:12:43.253Z,45.36
2018-08-23T20:15:11.826Z,45.10
2018-08-23T20:17:40.348Z,44.77
2018-08-23T20:20:09.155Z,44.32
2018-08-23T20:22:37.975Z,43.99
2018-08-23T20:25:06.552Z,43.83
2018-08-23T20:27:35.413Z,44.95
2018-08-23T20:30:04.020Z,45.67
2018-08-23T20:32:32.544Z,45.62
2018-08-23T20:35:01.724Z,46.30
2018-08-23T20:37:30.813Z,46.58
2018-08-23T20:39:59.620Z,46.86
2018-08-23T20:42:28.145Z,47.92
2018-08-23T20:44:56.717Z,48.93
2018-08-23T20:47:25.242Z,49.38
2018-08-23T20:49:53.934Z,49.29
2018-08-23T20:52:22.785Z,49.04
2018-08-23T20:54:51.384Z,51.60
2018-08-23T20:57:23.349Z,51.05
2018-08-23T20:59:52.249Z,50.54
2018-08-23T21:02:21.016Z,50.32
2018-08-23T21:04:49.585Z,49.88
2018-08-23T21:07:18.148Z,50.17
2018-08-23T21:09:46.795Z,50.34
2018-08-23T21:12:15.309Z,51.32
2018-08-23T21:14:44.298Z,51.76
2018-08-23T21:17:12.859Z,52.41
2018-08-23T21:19:42.301Z,52.54
2018-08-23T21:22:10.918Z,52.21
2018-08-23T21:24:39.499Z,51.82
2018-08-23T21:27:08.057Z,52.19
2018-08-23T21:29:36.619Z,52.06
2018-08-23T21:32:05.711Z,53.33
2018-08-23T21:34:34.258Z,53.55
2018-08-23T21:37:02.808Z,53.24
2018-08-23T21:39:31.335Z,53.28
2018-08-23T21:41:59.881Z,53.47
2018-08-23T21:44:30.295Z,53.21
2018-08-23T21:46:59.598Z,53.47
2018-08-23T21:49:28.973Z,53.31
2018-08-23T21:51:57.599Z,53.88
2018-08-23T21:54:27.020Z,53.58
2018-08-23T21:56:55.561Z,54.20
2018-08-23T21:59:24.116Z,55.07
2018-08-23T22:01:56.815Z,55.12
2018-08-23T22:04:26.449Z,55.19
2018-08-23T22:06:55.324Z,54.69
2018-08-23T22:09:23.892Z,56.59
2018-08-23T22:11:52.666Z,57.15
2018-08-23T22:14:21.231Z,56.31
2018-08-23T22:16:49.823Z,55.42
2018-08-23T22:19:18.670Z,54.68
2018-08-23T22:21:48.462Z,53.63
2018-08-23T22:24:16.992Z,52.65
2018-08-23T22:26:45.616Z,53.74
2018-08-23T22:29:14.157Z,56.55
2018-08-23T22:31:43.744Z,60.39
2018-08-23T22:34:12.577Z,59.97
2018-08-23T22:36:41.118Z,59.50
2018-08-23T22:39:09.857Z,60.06
2018-08-23T22:41:38.968Z,60.06
2018-08-23T22:44:07.812Z,62.37
2018-08-23T22:46:36.368Z,64.07
2018-08-23T22:49:04.948Z,64.80
2018-08-23T22:51:33.509Z,64.27
2018-08-23T22:54:02.042Z,64.11
2018-08-23T22:56:30.579Z,65.17
2018-08-23T22:58:59.353Z,67.16
2018-08-23T23:01:27.895Z,67.88
2018-08-23T23:04:02.388Z,67.57
2018-08-23T23:06:30.956Z,67.64
2018-08-23T23:08:59.486Z,67.46
2018-08-23T23:11:28.352Z,67.23
2018-08-23T23:13:57.186Z,67.52
2018-08-23T23:16:25.826Z,66.94
2018-08-23T23:18:54.325Z,65.72
2018-08-23T23:21:22.888Z,64.54
2018-08-23T23:23:51.427Z,64.18
2018-08-23T23:26:19.966Z,63.70
2018-08-23T23:28:48.501Z,63.55
2018-08-23T23:31:17.075Z,63.39
2018-08-23T23:33:46.010Z,63.44
2018-08-23T23:36:15.089Z,64.62
2018-08-23T23:38:44.107Z,64.61
2018-08-23T23:41:12.642Z,64.64
2018-08-23T23:43:41.246Z,64.57
2018-08-23T23:46:10.410Z,64.05
2018-08-23T23:48:39.044Z,64.02
2018-08-23T23:51:07.566Z,64.51
2018-08-23T23:53:36.514Z,64.82
2018-08-23T23:56:05.115Z,64.54
2018-08-23T23:58:33.710Z,64.29
